Shinsei Maru — JD2188 — position and weather

sailwx.info

Track history (hours):
 
Tides and Currents Weather Stations Pressure Air Temp Water Temp Dewpoint Dewpoint Depression Visibility Wind Speed Wind Dir Waves Ship Positions

Shinsei Maru

Last reported at 2015-Apr-24 20:33 UTC. Time now 2015-Apr-25 12:38 UTC.
Position N 34°01' E 134°59'.

Length 104 m; draft 6.5 m.

Type: Tanker. MMSI: 431301775.

Date/timePositionNaut miles runAvg speedWind from/ knotsBaromVisibWave heightAir tempDewpointWater temp
2015-Apr-24 20:33N 34°01' E 134°59'1414.1
2015-Apr-24 19:33N 34°15' E 134°59'1212.2
2015-Apr-24 18:33N 34°26' E 135°06'1313.5
2015-Apr-24 17:33N 34°32' E 135°20'5 4.3
2015-Apr-24 16:26N 34°33' E 135°26'0 0.0
2015-Apr-24 15:14N 34°33' E 135°26'0 0.0
2015-Apr-24 14:20N 34°33' E 135°26'0 0.0
2015-Apr-24 13:32N 34°33' E 135°26'0 0.0
2015-Apr-24 12:32N 34°33' E 135°26'0 0.0
2015-Apr-24 11:32N 34°33' E 135°26'0 0.0
2015-Apr-24 10:32N 34°33' E 135°26'0 0.0
2015-Apr-24 09:32N 34°33' E 135°26'0 0.0
2015-Apr-24 08:26N 34°33' E 135°26'0 0.0
2015-Apr-24 07:26N 34°33' E 135°26'0 0.0
2015-Apr-24 06:32N 34°33' E 135°26'0 0.0
2015-Apr-24 05:32N 34°33' E 135°26'0 0.0
2015-Apr-24 04:32N 34°33' E 135°26'4 3.7
2015-Apr-24 03:32N 34°33' E 135°21'2 0.3
2015-Apr-23 22:11N 34°32' E 135°20'0 0.0
2015-Apr-23 21:23N 34°32' E 135°20'6 6.7
2015-Apr-23 20:33N 34°29' E 135°14'1413.3
2015-Apr-23 19:32N 34°20' E 135°01'1312.9
2015-Apr-23 18:33N 34°07' E 134°60'  
2015-Apr-18 20:11N 34°32' E 138°36'4612.2
2015-Apr-18 16:27N 34°54' E 139°25'1112.8
2015-Apr-18 15:33N 35°02' E 139°36'1312.9
2015-Apr-18 14:34N 35°12' E 139°46'1211.8
2015-Apr-18 13:34N 35°23' E 139°42'9 8.7
2015-Apr-18 12:34N 35°31' E 139°46'0 0.0
2015-Apr-18 11:30N 35°31' E 139°46'0 0.0
2015-Apr-18 10:30N 35°31' E 139°46'0 0.0
2015-Apr-18 09:06N 35°31' E 139°46'0 0.0
2015-Apr-18 08:30N 35°31' E 139°46'0 0.0
2015-Apr-18 07:18N 35°31' E 139°46'1 1.2
2015-Apr-18 06:33N 35°30' E 139°46'3 3.1
2015-Apr-18 05:33N 35°28' E 139°48'1010.0
2015-Apr-18 04:33N 35°29' E 140°01'0 0.2
2015-Apr-18 03:17N 35°29' E 140°01'0 0.0
2015-Apr-18 02:29N 35°29' E 140°01'0 0.0
2015-Apr-18 01:17N 35°29' E 140°01'0 0.0
2015-Apr-18 00:23N 35°29' E 140°01'0 0.0
2015-Apr-17 23:29N 35°29' E 140°01'0 0.0
2015-Apr-17 22:23N 35°29' E 140°01'3 3.3
2015-Apr-17 21:34N 35°30' E 139°58'2 2.2
2015-Apr-17 20:33N 35°29' E 139°56'0 0.1
2015-Apr-17 19:33N 35°29' E 139°56'0 0.1
2015-Apr-17 18:30N 35°29' E 139°56'0 0.0
2015-Apr-17 17:33N 35°29' E 139°56'0 0.0
2015-Apr-17 16:30N 35°29' E 139°56'0 0.0
2015-Apr-17 15:33N 35°29' E 139°56'0 0.0
2015-Apr-17 14:33N 35°29' E 139°56'0 0.0
2015-Apr-17 13:33N 35°29' E 139°56'0 0.0
2015-Apr-17 12:33N 35°29' E 139°56'0 0.0
2015-Apr-17 11:33N 35°29' E 139°56'0 0.0
2015-Apr-17 10:33N 35°29' E 139°56'7 7.4
2015-Apr-17 09:33N 35°25' E 139°48'1110.8
2015-Apr-17 08:33N 35°15' E 139°47'1414.0
2015-Apr-17 07:33N 35°01' E 139°43'1410.5
2015-Apr-17 06:13N 34°52' E 139°57'811.9
2015-Apr-17 05:31N 34°57' E 140°05'2712.2
2015-Apr-17 03:17N 35°14' E 140°31'1012.2
2015-Apr-17 02:31N 35°22' E 140°37'  
Track history (hours):
 
Tides and Currents Weather Stations Pressure Air Temp Water Temp Dewpoint Dewpoint Depression Visibility Wind Speed Wind Dir Waves Ship Positions

Shinsei Maru

Last reported at 2015-Apr-24 20:33 UTC. Time now 2015-Apr-25 12:38 UTC.
Position N 34°01' E 134°59'.

Length 104 m; draft 6.5 m.

Type: Tanker. MMSI: 431301775.

Date/timePositionNaut miles runAvg speedWind from/ knotsBaromVisibWave heightAir tempDewpointWater temp
2015-Apr-24 20:33N 34°01' E 134°59'1414.1
2015-Apr-24 19:33N 34°15' E 134°59'1212.2
2015-Apr-24 18:33N 34°26' E 135°06'1313.5
2015-Apr-24 17:33N 34°32' E 135°20'5 4.3
2015-Apr-24 16:26N 34°33' E 135°26'0 0.0
2015-Apr-24 15:14N 34°33' E 135°26'0 0.0
2015-Apr-24 14:20N 34°33' E 135°26'0 0.0
2015-Apr-24 13:32N 34°33' E 135°26'0 0.0
2015-Apr-24 12:32N 34°33' E 135°26'0 0.0
2015-Apr-24 11:32N 34°33' E 135°26'0 0.0
2015-Apr-24 10:32N 34°33' E 135°26'0 0.0
2015-Apr-24 09:32N 34°33' E 135°26'0 0.0
2015-Apr-24 08:26N 34°33' E 135°26'0 0.0
2015-Apr-24 07:26N 34°33' E 135°26'0 0.0
2015-Apr-24 06:32N 34°33' E 135°26'0 0.0
2015-Apr-24 05:32N 34°33' E 135°26'0 0.0
2015-Apr-24 04:32N 34°33' E 135°26'4 3.7
2015-Apr-24 03:32N 34°33' E 135°21'2 0.3
2015-Apr-23 22:11N 34°32' E 135°20'0 0.0
2015-Apr-23 21:23N 34°32' E 135°20'6 6.7
2015-Apr-23 20:33N 34°29' E 135°14'1413.3
2015-Apr-23 19:32N 34°20' E 135°01'1312.9
2015-Apr-23 18:33N 34°07' E 134°60'  
2015-Apr-18 20:11N 34°32' E 138°36'4612.2
2015-Apr-18 16:27N 34°54' E 139°25'1112.8
2015-Apr-18 15:33N 35°02' E 139°36'1312.9
2015-Apr-18 14:34N 35°12' E 139°46'1211.8
2015-Apr-18 13:34N 35°23' E 139°42'9 8.7
2015-Apr-18 12:34N 35°31' E 139°46'0 0.0
2015-Apr-18 11:30N 35°31' E 139°46'0 0.0
2015-Apr-18 10:30N 35°31' E 139°46'0 0.0
2015-Apr-18 09:06N 35°31' E 139°46'0 0.0
2015-Apr-18 08:30N 35°31' E 139°46'0 0.0
2015-Apr-18 07:18N 35°31' E 139°46'1 1.2
2015-Apr-18 06:33N 35°30' E 139°46'3 3.1
2015-Apr-18 05:33N 35°28' E 139°48'1010.0
2015-Apr-18 04:33N 35°29' E 140°01'0 0.2
2015-Apr-18 03:17N 35°29' E 140°01'0 0.0
2015-Apr-18 02:29N 35°29' E 140°01'0 0.0
2015-Apr-18 01:17N 35°29' E 140°01'0 0.0
2015-Apr-18 00:23N 35°29' E 140°01'0 0.0
2015-Apr-17 23:29N 35°29' E 140°01'0 0.0
2015-Apr-17 22:23N 35°29' E 140°01'3 3.3
2015-Apr-17 21:34N 35°30' E 139°58'2 2.2
2015-Apr-17 20:33N 35°29' E 139°56'0 0.1
2015-Apr-17 19:33N 35°29' E 139°56'0 0.1
2015-Apr-17 18:30N 35°29' E 139°56'0 0.0
2015-Apr-17 17:33N 35°29' E 139°56'0 0.0
2015-Apr-17 16:30N 35°29' E 139°56'0 0.0
2015-Apr-17 15:33N 35°29' E 139°56'0 0.0
2015-Apr-17 14:33N 35°29' E 139°56'0 0.0
2015-Apr-17 13:33N 35°29' E 139°56'0 0.0
2015-Apr-17 12:33N 35°29' E 139°56'0 0.0
2015-Apr-17 11:33N 35°29' E 139°56'0 0.0
2015-Apr-17 10:33N 35°29' E 139°56'7 7.4
2015-Apr-17 09:33N 35°25' E 139°48'1110.8
2015-Apr-17 08:33N 35°15' E 139°47'1414.0
2015-Apr-17 07:33N 35°01' E 139°43'1410.5
2015-Apr-17 06:13N 34°52' E 139°57'811.9
2015-Apr-17 05:31N 34°57' E 140°05'2712.2
2015-Apr-17 03:17N 35°14' E 140°31'1012.2
2015-Apr-17 02:31N 35°22' E 140°37'  

Dump ship's entire track history